To NAV CANADA Home Page Login to a new session Search on AWWS site Feedback and Comments Disclaimer Vers la page française équivalente Tips FAQ What's new on the site To the Forecasts and Observations / NOTAM section To "File a Flight Plan" website Publications and other links Update of the User's profile FIC Telephone Numbers My Weather Data Folder Route Weather Data Regional Weather Data Local Weather Data To the Forecasts and Observations / NOTAM section
Request Generated 07/24/2016 at 04:51:53 UTC . Weather information available at that time is displayed.

METAR/TAF

DAWSON CITY/YT    

LWIS CYDA 240400Z AUTO 00000KT 15/12 A2953=
METAR CYDA 240300Z 06004KT 030V090 20SM -SHRA BKN040CB BKN100 OVC220
16/12 A2952 RMK CB6AC1CI1 CLIMAT 19.2/9.9/0.4MM LAST STFD OBS/NEXT
241300 Z SLP007 DENSITY ALT 2000FT=
SPECI CYDA 240225Z VRB02KT 20SM -SHRA BKN040CB BKN100 OVC230 16/12
A2951 RMK CB5AC2CI1 SLP006 DENSITY ALT 2000FT=
METAR CYDA 240200Z VRB04KT 20SM VCSH BKN040CB BKN100 OVC230 17/12
A2951 RMK CB5AC1CI2 SLP003 DENSITY ALT 2100FT=

*** REMARK        : Forecast period has ended; this was the last TAF issued
*** REMARQUE : La période de prévision est échue; ceci était le dernier TAF qui a été émis
TAF CYDA 232338Z 2400/2403 VRB03KT P6SM OVC040 TEMPO 2400/2403 P6SM
-SHRA SCT020 OVC030
RMK NXT FCST WILL BE ISSUED AT 241445Z=
Your time UTC time
Weather data provided by Environment Canada and NAV CANADA